Time;durP1;ratioP1;P1;durP2;ratioP2;P2;SDS_P1;SDS_P2;PMS_P1;PMS_P2;Temp;Humidity;BMP_temperature;BMP_pressure;BME280_temperature;BME280_humidity;BME280_pressure;Samples;Min_cycle;Max_cycle;Signal;HPM_P1;HPM_P2
2021/11/09 00:00:09;;;;;;;;;;;22.50;27.90;;;;;;500421;237;2093;-60
2021/11/09 00:02:11;;;;;;;;;;;22.50;27.90;;;;;;500339;237;1244;-61
2021/11/09 00:04:11;;;;;;;;;;;22.50;27.90;;;;;;500325;237;1489;-61
2021/11/09 00:06:21;;;;;;;;;;;22.50;27.80;;;;;;500369;235;1203;-60
2021/11/09 00:08:20;;;;;;;;;;;22.50;27.80;;;;;;500037;238;1336;-60
2021/11/09 00:10:20;;;;;;;;;;;22.50;27.90;;;;;;500334;238;1960;-60
2021/11/09 00:12:21;;;;;;;;;;;22.40;28.00;;;;;;500222;237;1141;-60
2021/11/09 00:14:22;;;;;;;;;;;22.50;27.90;;;;;;500224;237;1006;-61
2021/11/09 00:16:23;;;;;;;;;;;22.60;27.80;;;;;;500261;237;1225;-60
2021/11/09 00:18:25;;;;;;;;;;;22.50;27.80;;;;;;500308;237;2168;-60
2021/11/09 00:20:26;;;;;;;;;;;22.50;27.80;;;;;;500364;237;1210;-60
2021/11/09 00:22:27;;;;;;;;;;;22.50;27.80;;;;;;500283;237;1220;-60
2021/11/09 00:24:29;;;;;;;;;;;22.50;27.80;;;;;;500395;237;1014;-60
2021/11/09 00:26:30;;;;;;;;;;;22.50;27.90;;;;;;500287;237;1196;-60
2021/11/09 00:28:32;;;;;;;;;;;22.50;27.90;;;;;;500305;237;978;-60
2021/11/09 00:30:33;;;;;;;;;;;22.50;27.90;;;;;;500321;237;987;-60
2021/11/09 00:32:34;;;;;;;;;;;22.50;27.80;;;;;;500321;237;1278;-60
2021/11/09 00:34:36;;;;;;;;;;;22.60;27.80;;;;;;500388;237;1152;-60
2021/11/09 00:36:37;;;;;;;;;;;22.60;27.90;;;;;;500440;237;1211;-60
2021/11/09 00:38:38;;;;;;;;;;;22.60;27.80;;;;;;500387;237;2192;-60
2021/11/09 00:40:40;;;;;;;;;;;22.60;27.80;;;;;;500333;237;1345;-60
2021/11/09 00:42:41;;;;;;;;;;;22.60;27.80;;;;;;500382;237;1106;-60
2021/11/09 00:44:42;;;;;;;;;;;22.60;27.80;;;;;;500339;237;995;-60
2021/11/09 00:46:44;;;;;;;;;;;22.60;27.80;;;;;;500350;237;1201;-60
2021/11/09 00:48:45;;;;;;;;;;;22.60;27.80;;;;;;500382;237;967;-60
2021/11/09 00:50:46;;;;;;;;;;;22.60;27.80;;;;;;500367;237;1201;-60
2021/11/09 00:52:48;;;;;;;;;;;22.60;27.90;;;;;;500396;237;1167;-60
2021/11/09 00:54:49;;;;;;;;;;;22.60;27.90;;;;;;500405;237;1071;-60
2021/11/09 00:56:50;;;;;;;;;;;22.60;28.00;;;;;;500364;237;1379;-60
2021/11/09 00:58:52;;;;;;;;;;;22.70;27.90;;;;;;500358;237;2105;-60
2021/11/09 01:00:53;;;;;;;;;;;22.60;27.90;;;;;;500385;237;1084;-60
2021/11/09 01:02:55;;;;;;;;;;;22.60;27.90;;;;;;500524;237;1140;-60
2021/11/09 01:06:59;;;;;;;;;;;22.60;27.90;;;;;;496063;238;567;-94
2021/11/09 01:09:01;;;;;;;;;;;22.70;27.90;;;;;;495464;233;3593;-61
2021/11/09 01:11:02;;;;;;;;;;;22.70;27.90;;;;;;495023;240;1051;-61
2021/11/09 01:13:03;;;;;;;;;;;22.60;27.90;;;;;;495020;240;1196;-60
2021/11/09 01:15:05;;;;;;;;;;;22.60;27.90;;;;;;494972;240;1034;-60
2021/11/09 01:17:07;;;;;;;;;;;22.70;27.90;;;;;;495030;240;1067;-61
2021/11/09 01:19:08;;;;;;;;;;;22.70;27.90;;;;;;495032;240;2182;-60
2021/11/09 01:21:12;;;;;;;;;;;22.60;27.90;;;;;;494973;240;1475;-60
2021/11/09 01:23:11;;;;;;;;;;;22.60;27.90;;;;;;494798;241;1570;-60
2021/11/09 01:25:12;;;;;;;;;;;22.70;27.90;;;;;;494976;240;1221;-60
2021/11/09 01:27:13;;;;;;;;;;;22.60;27.90;;;;;;494998;240;1087;-60
2021/11/09 01:29:14;;;;;;;;;;;22.60;27.90;;;;;;495033;240;966;-61
2021/11/09 01:31:16;;;;;;;;;;;22.70;27.90;;;;;;495006;240;1116;-61
2021/11/09 01:33:17;;;;;;;;;;;22.70;27.90;;;;;;494933;240;1160;-60
2021/11/09 01:35:19;;;;;;;;;;;22.60;27.90;;;;;;495019;240;983;-60
2021/11/09 01:37:20;;;;;;;;;;;22.70;27.90;;;;;;494829;240;1445;-60
2021/11/09 01:39:21;;;;;;;;;;;22.60;27.80;;;;;;494998;240;2116;-61
2021/11/09 01:41:22;;;;;;;;;;;22.70;27.90;;;;;;495041;240;1524;-60
2021/11/09 01:43:24;;;;;;;;;;;22.70;27.80;;;;;;494979;240;1112;-60
2021/11/09 01:45:25;;;;;;;;;;;22.70;27.80;;;;;;494936;240;944;-61
2021/11/09 01:47:26;;;;;;;;;;;22.70;27.80;;;;;;494975;240;1142;-60
2021/11/09 01:49:28;;;;;;;;;;;22.60;27.80;;;;;;495014;240;960;-60
2021/11/09 01:51:30;;;;;;;;;;;22.60;27.70;;;;;;495055;237;1285;-60
2021/11/09 01:53:31;;;;;;;;;;;22.70;27.70;;;;;;495012;240;1124;-60
2021/11/09 01:55:33;;;;;;;;;;;22.60;27.70;;;;;;495022;240;1096;-60
2021/11/09 01:57:34;;;;;;;;;;;22.60;27.70;;;;;;494974;240;1127;-60
2021/11/09 01:59:36;;;;;;;;;;;22.60;27.70;;;;;;494967;240;2152;-60
2021/11/09 02:01:37;;;;;;;;;;;22.70;27.60;;;;;;494995;237;1305;-60
2021/11/09 02:03:38;;;;;;;;;;;22.60;27.60;;;;;;495005;240;953;-60
2021/11/09 02:05:42;;;;;;;;;;;22.60;27.60;;;;;;495049;240;1039;-60
2021/11/09 02:07:41;;;;;;;;;;;22.60;27.60;;;;;;494733;241;1493;-60
2021/11/09 02:09:42;;;;;;;;;;;22.60;27.60;;;;;;495002;240;1076;-60
2021/11/09 02:11:43;;;;;;;;;;;22.60;27.60;;;;;;494812;240;1219;-60
2021/11/09 02:13:45;;;;;;;;;;;22.60;27.50;;;;;;495028;240;982;-60
2021/11/09 02:15:46;;;;;;;;;;;22.60;27.50;;;;;;495089;240;1171;-60
2021/11/09 02:17:47;;;;;;;;;;;22.60;27.50;;;;;;494889;240;1168;-60
2021/11/09 02:19:49;;;;;;;;;;;22.60;27.50;;;;;;495029;240;2199;-60
2021/11/09 02:21:50;;;;;;;;;;;22.70;27.50;;;;;;494852;240;1506;-61
2021/11/09 02:23:51;;;;;;;;;;;22.60;27.50;;;;;;495088;240;1064;-60
2021/11/09 02:25:53;;;;;;;;;;;22.60;27.50;;;;;;495017;240;997;-60
2021/11/09 02:27:54;;;;;;;;;;;22.60;27.40;;;;;;494829;240;1109;-60
2021/11/09 02:29:55;;;;;;;;;;;22.60;27.50;;;;;;494985;240;1148;-60
2021/11/09 02:31:57;;;;;;;;;;;22.50;27.50;;;;;;495001;240;1205;-60
2021/11/09 02:33:58;;;;;;;;;;;22.60;27.50;;;;;;494988;240;1083;-60
2021/11/09 02:35:59;;;;;;;;;;;22.50;27.50;;;;;;494961;240;1177;-60
2021/11/09 02:38:01;;;;;;;;;;;22.50;27.50;;;;;;494894;240;1255;-60
2021/11/09 02:40:02;;;;;;;;;;;22.50;27.40;;;;;;494964;240;2115;-60
2021/11/09 02:42:03;;;;;;;;;;;22.60;27.40;;;;;;494981;240;1187;-61
2021/11/09 02:44:06;;;;;;;;;;;22.60;27.40;;;;;;494995;240;1143;-60
2021/11/09 02:48:33;;;;;;;;;;;22.50;27.40;;;;;;493983;241;1205;-60
2021/11/09 02:50:36;;;;;;;;;;;22.50;27.40;;;;;;494933;240;1320;-60
2021/11/09 02:52:43;;;;;;;;;;;22.60;27.40;;;;;;494799;241;1561;-61
2021/11/09 02:54:39;;;;;;;;;;;22.60;27.50;;;;;;494407;241;1371;-60
2021/11/09 02:56:42;;;;;;;;;;;22.50;27.50;;;;;;494789;241;1365;-60
2021/11/09 02:58:47;;;;;;;;;;;22.50;27.50;;;;;;494719;241;1185;-60
2021/11/09 03:00:57;;;;;;;;;;;22.50;27.50;;;;;;494649;241;2171;-60
2021/11/09 03:02:53;;;;;;;;;;;22.50;27.50;;;;;;494336;241;1353;-60
2021/11/09 03:05:02;;;;;;;;;;;22.50;27.50;;;;;;494717;241;1344;-60
2021/11/09 03:07:03;;;;;;;;;;;22.50;27.60;;;;;;494464;241;1567;-60
2021/11/09 03:09:06;;;;;;;;;;;22.40;27.70;;;;;;494676;241;1481;-61
2021/11/09 03:11:03;;;;;;;;;;;22.30;27.70;;;;;;494638;241;1467;-60
2021/11/09 03:13:04;;;;;;;;;;;22.30;27.80;;;;;;495034;240;1220;-60
2021/11/09 03:15:05;;;;;;;;;;;22.20;27.80;;;;;;495027;240;966;-60
2021/11/09 03:17:14;;;;;;;;;;;22.20;27.80;;;;;;494918;240;1025;-60
2021/11/09 03:19:21;;;;;;;;;;;22.20;27.80;;;;;;494639;241;1491;-60
2021/11/09 03:40:25;;;;;;;;;;;22.20;27.80;;;;;;484463;246;2149;-60
2021/11/09 03:44:38;;;;;;;;;;;22.10;27.90;;;;;;484477;246;967;-60
2021/11/09 03:46:37;;;;;;;;;;;22.20;27.80;;;;;;484211;246;1457;-60
2021/11/09 03:48:38;;;;;;;;;;;22.10;27.90;;;;;;484419;246;1045;-60
2021/11/09 03:50:39;;;;;;;;;;;22.10;27.80;;;;;;484454;246;1061;-60
2021/11/09 03:52:43;;;;;;;;;;;22.10;27.80;;;;;;484493;246;1035;-60
2021/11/09 03:54:42;;;;;;;;;;;22.10;27.80;;;;;;484289;246;1406;-61
2021/11/09 03:56:47;;;;;;;;;;;22.10;27.80;;;;;;484392;246;1023;-61
2021/11/09 03:58:48;;;;;;;;;;;22.10;27.90;;;;;;484293;246;1503;-61
2021/11/09 04:00:49;;;;;;;;;;;22.10;27.80;;;;;;484227;246;2117;-60
2021/11/09 04:02:54;;;;;;;;;;;22.10;27.80;;;;;;484162;246;1889;-60
2021/11/09 04:04:53;;;;;;;;;;;22.10;27.80;;;;;;484054;246;1477;-60
2021/11/09 04:07:02;;;;;;;;;;;22.10;27.80;;;;;;484212;246;1399;-60
2021/11/09 04:08:58;;;;;;;;;;;22.10;27.90;;;;;;483653;246;1362;-60
2021/11/09 04:11:00;;;;;;;;;;;22.10;27.90;;;;;;484149;246;1365;-60
2021/11/09 04:13:04;;;;;;;;;;;22.10;27.90;;;;;;484048;246;1379;-60
2021/11/09 04:15:13;;;;;;;;;;;22.10;27.90;;;;;;484101;244;1507;-60
2021/11/09 04:17:12;;;;;;;;;;;22.10;27.90;;;;;;483989;246;1456;-61
2021/11/09 04:19:23;;;;;;;;;;;21.90;28.00;;;;;;484250;246;1398;-60
2021/11/09 04:21:41;;;;;;;;;;;22.00;28.00;;;;;;484083;246;2196;-60
2021/11/09 04:23:51;;;;;;;;;;;22.00;28.00;;;;;;483781;246;1437;-60
2021/11/09 04:25:54;;;;;;;;;;;22.00;28.00;;;;;;483663;246;1392;-60
2021/11/09 04:28:01;;;;;;;;;;;22.10;28.00;;;;;;483949;246;1324;-60
2021/11/09 04:30:16;;;;;;;;;;;22.10;28.00;;;;;;484041;246;1395;-60
2021/11/09 04:32:20;;;;;;;;;;;22.10;28.00;;;;;;483551;246;1435;-60
2021/11/09 04:51:30;;;;;;;;;;;22.00;28.10;;;;;;484385;246;1205;-60
2021/11/09 05:02:48;;;;;;;;;;;22.00;28.10;;;;;;494914;241;1147;-60
2021/11/09 05:09:31;;;;;;;;;;;22.00;28.00;;;;;;495042;241;977;-60
2021/11/09 05:11:27;;;;;;;;;;;22.00;28.10;;;;;;494640;241;1322;-61
2021/11/09 05:13:28;;;;;;;;;;;22.00;28.00;;;;;;495097;240;959;-60
2021/11/09 05:15:30;;;;;;;;;;;22.00;28.00;;;;;;494945;240;1156;-60
2021/11/09 05:17:31;;;;;;;;;;;22.00;28.00;;;;;;494954;240;1115;-60
2021/11/09 05:19:33;;;;;;;;;;;21.90;28.00;;;;;;494919;240;1009;-61
2021/11/09 05:21:34;;;;;;;;;;;21.90;28.00;;;;;;494860;240;2119;-60
2021/11/09 05:23:35;;;;;;;;;;;21.90;28.10;;;;;;494812;240;1065;-61
2021/11/09 05:25:37;;;;;;;;;;;21.90;28.10;;;;;;494865;240;1195;-60
2021/11/09 05:27:38;;;;;;;;;;;21.80;28.10;;;;;;494884;240;1015;-60
2021/11/09 05:29:39;;;;;;;;;;;21.80;28.20;;;;;;494915;240;1081;-60
2021/11/09 05:31:41;;;;;;;;;;;21.70;28.20;;;;;;494917;240;1341;-60
2021/11/09 05:33:42;;;;;;;;;;;21.80;28.20;;;;;;494960;240;1019;-60
2021/11/09 05:35:43;;;;;;;;;;;21.80;28.20;;;;;;494910;240;1301;-60
2021/11/09 05:37:47;;;;;;;;;;;21.80;28.20;;;;;;494864;240;1340;-60
2021/11/09 05:39:48;;;;;;;;;;;21.70;28.20;;;;;;494782;241;1838;-60
2021/11/09 05:41:51;;;;;;;;;;;21.70;28.20;;;;;;494703;240;2191;-61
2021/11/09 05:43:49;;;;;;;;;;;21.70;28.10;;;;;;494671;241;1418;-60
2021/11/09 05:45:50;;;;;;;;;;;21.70;28.10;;;;;;494933;240;1192;-60
2021/11/09 05:47:51;;;;;;;;;;;21.70;28.10;;;;;;494777;240;1159;-61
2021/11/09 05:49:52;;;;;;;;;;;21.70;28.20;;;;;;494634;240;1084;-61
2021/11/09 05:51:54;;;;;;;;;;;21.70;28.20;;;;;;494574;240;1220;-60
2021/11/09 05:53:56;;;;;;;;;;;21.70;28.20;;;;;;494729;240;1068;-60
2021/11/09 05:55:57;;;;;;;;;;;21.60;28.20;;;;;;494610;240;1277;-60
2021/11/09 05:57:58;;;;;;;;;;;21.70;28.10;;;;;;494633;240;1029;-60
2021/11/09 06:00:02;;;;;;;;;;;21.70;28.10;;;;;;494697;240;953;-61
2021/11/09 06:02:01;;;;;;;;;;;21.70;28.10;;;;;;494443;241;2170;-61
2021/11/09 06:04:02;;;;;;;;;;;21.70;28.10;;;;;;494713;240;1065;-61
2021/11/09 06:06:03;;;;;;;;;;;21.70;28.00;;;;;;494619;240;1239;-61
2021/11/09 06:08:05;;;;;;;;;;;21.70;28.10;;;;;;494689;240;1044;-61
2021/11/09 06:10:06;;;;;;;;;;;21.70;28.10;;;;;;494590;240;994;-61
2021/11/09 06:12:07;;;;;;;;;;;21.70;28.00;;;;;;494604;240;1286;-60
2021/11/09 06:14:09;;;;;;;;;;;21.70;28.00;;;;;;494618;240;1044;-60
2021/11/09 06:16:10;;;;;;;;;;;21.70;28.00;;;;;;494640;240;1349;-60
2021/11/09 06:18:11;;;;;;;;;;;21.70;28.00;;;;;;494545;240;1093;-60
2021/11/09 06:20:13;;;;;;;;;;;21.60;28.00;;;;;;494520;240;1052;-60
2021/11/09 06:22:14;;;;;;;;;;;21.60;28.00;;;;;;494403;240;2119;-61
2021/11/09 06:24:15;;;;;;;;;;;21.70;28.00;;;;;;494593;240;977;-61
2021/11/09 06:26:17;;;;;;;;;;;21.70;28.00;;;;;;494476;237;1315;-61
2021/11/09 06:28:20;;;;;;;;;;;21.70;28.00;;;;;;494483;240;1247;-60
2021/11/09 06:30:19;;;;;;;;;;;21.60;28.00;;;;;;494363;241;1506;-61
2021/11/09 06:32:21;;;;;;;;;;;21.70;28.00;;;;;;494590;240;979;-60
2021/11/09 06:34:22;;;;;;;;;;;21.70;28.00;;;;;;494607;240;1241;-60
2021/11/09 06:36:23;;;;;;;;;;;21.70;28.00;;;;;;494604;240;983;-60
2021/11/09 06:38:25;;;;;;;;;;;21.60;28.00;;;;;;494483;240;1081;-61
2021/11/09 06:40:26;;;;;;;;;;;21.60;28.00;;;;;;494464;240;1137;-61
2021/11/09 06:42:27;;;;;;;;;;;21.70;28.00;;;;;;494544;240;2115;-60
2021/11/09 06:44:29;;;;;;;;;;;21.60;27.90;;;;;;494493;240;975;-61
2021/11/09 06:46:30;;;;;;;;;;;21.60;28.00;;;;;;494506;240;1126;-61
2021/11/09 06:48:31;;;;;;;;;;;21.60;28.00;;;;;;494607;240;1025;-60
2021/11/09 06:50:33;;;;;;;;;;;21.60;27.90;;;;;;494585;240;1022;-60
2021/11/09 06:52:34;;;;;;;;;;;21.60;28.00;;;;;;494506;240;1181;-60
2021/11/09 06:54:36;;;;;;;;;;;21.60;27.90;;;;;;494432;240;1022;-60
2021/11/09 06:56:36;;;;;;;;;;;21.60;28.00;;;;;;494389;241;1219;-61
2021/11/09 06:58:38;;;;;;;;;;;21.60;28.00;;;;;;494423;240;1000;-61
2021/11/09 07:00:39;;;;;;;;;;;21.60;28.00;;;;;;494477;240;2190;-60
2021/11/09 07:02:41;;;;;;;;;;;21.60;28.10;;;;;;494422;240;1028;-61
2021/11/09 07:04:42;;;;;;;;;;;21.60;28.10;;;;;;494326;240;1071;-61
2021/11/09 07:06:44;;;;;;;;;;;21.60;28.00;;;;;;494323;240;1379;-61
2021/11/09 07:08:45;;;;;;;;;;;21.60;28.10;;;;;;494394;240;2091;-61
2021/11/09 07:10:47;;;;;;;;;;;21.60;28.10;;;;;;494270;241;1417;-60
2021/11/09 07:12:47;;;;;;;;;;;21.70;28.10;;;;;;494404;240;1844;-61
2021/11/09 07:14:50;;;;;;;;;;;21.60;28.00;;;;;;494501;240;1140;-61
2021/11/09 07:16:52;;;;;;;;;;;21.60;28.00;;;;;;494293;240;1800;-61
2021/11/09 07:18:55;;;;;;;;;;;21.60;28.10;;;;;;494287;241;1367;-60
2021/11/09 07:20:52;;;;;;;;;;;21.60;28.10;;;;;;494016;241;2115;-61
2021/11/09 07:22:54;;;;;;;;;;;21.60;28.10;;;;;;494232;240;1364;-60
2021/11/09 07:24:56;;;;;;;;;;;21.60;28.10;;;;;;494316;240;965;-60
2021/11/09 07:26:57;;;;;;;;;;;21.60;28.20;;;;;;494184;240;1428;-61
2021/11/09 07:28:58;;;;;;;;;;;21.60;28.20;;;;;;494382;240;984;-60
2021/11/09 07:31:02;;;;;;;;;;;21.60;28.20;;;;;;494192;240;1443;-61
2021/11/09 07:33:01;;;;;;;;;;;21.70;28.10;;;;;;494197;241;1252;-60
2021/11/09 07:35:02;;;;;;;;;;;21.60;28.20;;;;;;494365;240;1304;-60
2021/11/09 07:37:03;;;;;;;;;;;21.70;28.20;;;;;;494390;240;1209;-60
2021/11/09 07:39:07;;;;;;;;;;;21.60;28.30;;;;;;494371;240;1103;-60
2021/11/09 07:41:07;;;;;;;;;;;21.60;28.30;;;;;;494103;240;2131;-60
2021/11/09 07:43:08;;;;;;;;;;;21.60;28.30;;;;;;494263;240;1184;-61
2021/11/09 07:45:10;;;;;;;;;;;21.60;28.30;;;;;;494323;240;1008;-60
2021/11/09 07:47:11;;;;;;;;;;;21.60;28.30;;;;;;494144;240;1271;-60
2021/11/09 07:49:12;;;;;;;;;;;21.60;28.30;;;;;;493854;240;1224;-60
2021/11/09 07:51:15;;;;;;;;;;;21.60;28.40;;;;;;493876;240;1182;-61
2021/11/09 07:53:16;;;;;;;;;;;21.60;28.50;;;;;;494641;240;1398;-60
2021/11/09 07:55:19;;;;;;;;;;;21.60;28.50;;;;;;494104;240;1495;-60
2021/11/09 07:57:20;;;;;;;;;;;21.60;28.60;;;;;;493931;240;2166;-61
2021/11/09 07:59:28;;;;;;;;;;;21.60;28.60;;;;;;493815;241;1389;-61
2021/11/09 08:01:32;;;;;;;;;;;21.60;28.60;;;;;;493589;241;2116;-61
2021/11/09 08:03:36;;;;;;;;;;;21.50;28.60;;;;;;493656;241;1221;-60
2021/11/09 08:05:39;;;;;;;;;;;21.60;28.60;;;;;;493948;241;1446;-60
2021/11/09 08:07:50;;;;;;;;;;;21.60;28.70;;;;;;494047;240;1248;-60
2021/11/09 08:09:39;;;;;;;;;;;21.50;28.70;;;;;;493208;241;1356;-61
2021/11/09 08:11:42;;;;;;;;;;;21.50;28.70;;;;;;494107;240;1362;-61
2021/11/09 08:13:42;;;;;;;;;;;21.50;28.80;;;;;;493976;241;1288;-61
2021/11/09 08:15:43;;;;;;;;;;;21.50;28.80;;;;;;493989;240;1320;-61
2021/11/09 08:17:44;;;;;;;;;;;21.50;28.80;;;;;;494389;240;1054;-60
2021/11/09 08:19:46;;;;;;;;;;;21.40;28.90;;;;;;494030;240;1075;-60
2021/11/09 08:21:47;;;;;;;;;;;21.50;28.90;;;;;;493970;240;2202;-60
2021/11/09 08:23:49;;;;;;;;;;;21.50;29.00;;;;;;494050;240;1064;-60
2021/11/09 08:25:50;;;;;;;;;;;21.40;29.00;;;;;;493913;240;1435;-61
2021/11/09 08:27:51;;;;;;;;;;;21.40;29.10;;;;;;494090;240;1132;-60
2021/11/09 08:29:52;;;;;;;;;;;21.50;29.00;;;;;;494157;240;1027;-61
2021/11/09 08:31:54;;;;;;;;;;;21.60;29.00;;;;;;494097;240;1255;-61
2021/11/09 08:33:55;;;;;;;;;;;21.70;28.90;;;;;;494036;240;1072;-60
2021/11/09 08:35:58;;;;;;;;;;;21.80;28.80;;;;;;494073;240;1169;-60
2021/11/09 08:37:58;;;;;;;;;;;22.00;28.70;;;;;;494073;241;1338;-60
2021/11/09 08:40:02;;;;;;;;;;;22.00;28.60;;;;;;494259;240;1101;-60
2021/11/09 08:42:11;;;;;;;;;;;22.10;28.70;;;;;;494025;241;2190;-61
2021/11/09 08:44:05;;;;;;;;;;;22.20;28.60;;;;;;493431;241;1295;-60
2021/11/09 08:46:11;;;;;;;;;;;22.20;28.60;;;;;;494109;240;2285;-61
2021/11/09 08:48:12;;;;;;;;;;;22.30;28.60;;;;;;493798;241;1302;-61
2021/11/09 08:50:12;;;;;;;;;;;22.30;28.60;;;;;;493859;241;1654;-61
2021/11/09 08:52:13;;;;;;;;;;;22.30;28.60;;;;;;494012;241;1793;-60
2021/11/09 08:54:16;;;;;;;;;;;22.30;28.70;;;;;;494127;241;1424;-60
2021/11/09 08:56:27;;;;;;;;;;;22.30;28.70;;;;;;494225;241;1411;-61
2021/11/09 09:01:03;;;;;;;;;;;22.30;28.70;;;;;;493817;241;1308;-61
2021/11/09 09:05:27;;;;;;;;;;;22.40;28.60;;;;;;494148;241;1036;-60
2021/11/09 09:07:29;;;;;;;;;;;22.40;28.60;;;;;;494240;240;1457;-61
2021/11/09 09:09:29;;;;;;;;;;;22.50;28.60;;;;;;494174;240;1364;-60
2021/11/09 09:11:31;;;;;;;;;;;22.50;28.60;;;;;;494176;240;1172;-61
2021/11/09 09:13:32;;;;;;;;;;;22.50;28.60;;;;;;494232;240;1195;-61
2021/11/09 09:15:33;;;;;;;;;;;22.60;28.60;;;;;;494119;240;1199;-61
2021/11/09 09:17:35;;;;;;;;;;;22.60;28.60;;;;;;494096;240;1350;-61
2021/11/09 09:19:40;;;;;;;;;;;22.50;28.60;;;;;;494128;240;1121;-61
2021/11/09 09:21:40;;;;;;;;;;;22.50;28.70;;;;;;493806;241;2186;-61
2021/11/09 09:23:44;;;;;;;;;;;22.60;28.70;;;;;;494148;240;1648;-61
2021/11/09 09:25:48;;;;;;;;;;;22.60;28.70;;;;;;494050;240;1714;-60
2021/11/09 09:30:31;;;;;;;;;;;22.60;28.80;;;;;;494094;241;1264;-60
2021/11/09 09:32:58;;;;;;;;;;;22.50;28.80;;;;;;493878;241;1474;-61
2021/11/09 09:53:54;;;;;;;;;;;22.60;29.30;;;;;;494067;241;1078;-61
2021/11/09 09:55:39;;;;;;;;;;;22.50;29.40;;;;;;492531;241;1290;-60
2021/11/09 09:57:40;;;;;;;;;;;22.40;29.50;;;;;;493892;240;1884;-60
2021/11/09 09:59:41;;;;;;;;;;;22.40;29.60;;;;;;493840;240;1236;-60
2021/11/09 10:01:42;;;;;;;;;;;22.40;29.60;;;;;;493821;240;2187;-60
2021/11/09 10:03:44;;;;;;;;;;;22.40;29.60;;;;;;493972;240;1080;-61
2021/11/09 10:05:45;;;;;;;;;;;22.40;29.70;;;;;;493966;240;1138;-61
2021/11/09 10:07:47;;;;;;;;;;;22.40;29.70;;;;;;494005;240;1124;-61
2021/11/09 10:09:48;;;;;;;;;;;22.40;29.70;;;;;;494017;240;1385;-61
2021/11/09 10:11:50;;;;;;;;;;;22.40;29.70;;;;;;494050;240;1252;-61
2021/11/09 10:13:51;;;;;;;;;;;22.40;29.70;;;;;;494121;240;1153;-61
2021/11/09 10:15:52;;;;;;;;;;;22.40;29.80;;;;;;494110;240;1093;-61
2021/11/09 10:17:54;;;;;;;;;;;22.40;29.70;;;;;;494000;240;1096;-61
2021/11/09 10:19:55;;;;;;;;;;;22.40;29.80;;;;;;494132;240;1160;-60
2021/11/09 10:21:56;;;;;;;;;;;22.40;29.90;;;;;;494053;240;2124;-61
2021/11/09 10:23:58;;;;;;;;;;;22.30;29.80;;;;;;494057;240;1146;-61
2021/11/09 10:26:01;;;;;;;;;;;22.40;29.90;;;;;;493915;240;1303;-61
2021/11/09 10:28:01;;;;;;;;;;;22.30;29.90;;;;;;493973;241;1990;-60
2021/11/09 10:30:02;;;;;;;;;;;22.40;29.80;;;;;;494008;240;1301;-61
2021/11/09 10:32:04;;;;;;;;;;;22.40;30.00;;;;;;493947;240;1093;-61
2021/11/09 10:34:05;;;;;;;;;;;22.30;30.00;;;;;;494024;240;1034;-60
2021/11/09 10:36:06;;;;;;;;;;;22.40;30.00;;;;;;493995;240;1140;-61
2021/11/09 10:38:08;;;;;;;;;;;22.40;30.00;;;;;;493939;240;1066;-61
2021/11/09 10:40:09;;;;;;;;;;;22.40;30.00;;;;;;493787;240;1287;-61
2021/11/09 10:42:10;;;;;;;;;;;22.50;30.00;;;;;;493897;240;2202;-61
2021/11/09 10:44:12;;;;;;;;;;;22.50;30.00;;;;;;494080;240;1266;-61
2021/11/09 10:46:13;;;;;;;;;;;22.40;30.00;;;;;;494083;240;1470;-61
2021/11/09 10:48:15;;;;;;;;;;;22.50;29.90;;;;;;493980;240;1155;-61
2021/11/09 10:50:19;;;;;;;;;;;22.60;29.90;;;;;;493979;240;843;-61
2021/11/09 10:52:17;;;;;;;;;;;22.50;30.00;;;;;;493867;241;1959;-61
2021/11/09 10:54:19;;;;;;;;;;;22.50;30.00;;;;;;494227;240;1075;-61
2021/11/09 10:56:26;;;;;;;;;;;22.60;30.00;;;;;;493442;239;1319;-61
2021/11/09 10:58:29;;;;;;;;;;;22.60;30.00;;;;;;493790;241;1378;-61
2021/11/09 11:00:33;;;;;;;;;;;22.70;29.90;;;;;;494231;241;2120;-61
2021/11/09 11:04:49;;;;;;;;;;;22.60;30.00;;;;;;494414;241;1024;-62
2021/11/09 11:06:50;;;;;;;;;;;22.60;29.90;;;;;;494206;240;1117;-63
2021/11/09 11:08:52;;;;;;;;;;;22.60;29.90;;;;;;494385;240;861;-61
2021/11/09 11:10:53;;;;;;;;;;;22.70;29.90;;;;;;494220;240;980;-61
2021/11/09 11:12:55;;;;;;;;;;;22.70;29.90;;;;;;493957;240;1159;-61
2021/11/09 11:14:56;;;;;;;;;;;22.70;29.90;;;;;;493951;241;1223;-61
2021/11/09 11:16:59;;;;;;;;;;;22.60;29.90;;;;;;493958;240;1335;-61
2021/11/09 11:18:58;;;;;;;;;;;22.70;29.90;;;;;;493929;241;1329;-61
2021/11/09 11:21:00;;;;;;;;;;;22.70;30.00;;;;;;494170;240;1221;-62
2021/11/09 11:23:01;;;;;;;;;;;22.70;30.00;;;;;;494126;240;2202;-61
2021/11/09 11:25:04;;;;;;;;;;;22.60;30.00;;;;;;493456;240;1085;-60
2021/11/09 11:27:04;;;;;;;;;;;22.90;29.70;;;;;;493551;241;1745;-59
2021/11/09 11:29:06;;;;;;;;;;;23.60;28.90;;;;;;493603;240;1209;-61
2021/11/09 11:31:07;;;;;;;;;;;23.90;28.70;;;;;;493633;240;1190;-61
2021/11/09 11:33:08;;;;;;;;;;;24.00;28.60;;;;;;494479;240;1034;-60
2021/11/09 11:35:13;;;;;;;;;;;24.00;28.50;;;;;;494414;240;1435;-60
2021/11/09 11:37:11;;;;;;;;;;;24.10;28.40;;;;;;493716;241;2253;-60
2021/11/09 11:39:12;;;;;;;;;;;24.10;28.50;;;;;;493962;240;864;-61
2021/11/09 11:41:14;;;;;;;;;;;24.10;28.50;;;;;;493813;240;1227;-60
2021/11/09 11:43:15;;;;;;;;;;;24.10;28.50;;;;;;494465;240;2190;-60
2021/11/09 11:45:16;;;;;;;;;;;24.10;28.40;;;;;;493608;240;1228;-60
2021/11/09 11:47:19;;;;;;;;;;;24.20;28.40;;;;;;493876;240;1385;-60
2021/11/09 11:49:19;;;;;;;;;;;24.10;28.40;;;;;;493862;240;1795;-60
2021/11/09 11:51:20;;;;;;;;;;;24.20;28.40;;;;;;494123;240;1213;-61
2021/11/09 11:53:22;;;;;;;;;;;24.20;28.40;;;;;;494279;240;1106;-60
2021/11/09 11:55:24;;;;;;;;;;;24.20;28.50;;;;;;493623;240;1133;-60
2021/11/09 11:57:24;;;;;;;;;;;24.10;28.50;;;;;;493575;240;1385;-60
2021/11/09 11:59:26;;;;;;;;;;;24.20;28.50;;;;;;493408;240;1121;-60
2021/11/09 12:01:27;;;;;;;;;;;24.20;28.50;;;;;;493585;240;1375;-60
2021/11/09 12:03:28;;;;;;;;;;;24.10;28.50;;;;;;493620;240;2195;-61
2021/11/09 12:05:30;;;;;;;;;;;24.20;28.50;;;;;;493954;240;833;-60
2021/11/09 12:07:31;;;;;;;;;;;24.20;28.50;;;;;;493939;240;1311;-61
2021/11/09 12:09:32;;;;;;;;;;;24.10;28.50;;;;;;493675;241;833;-60
2021/11/09 12:11:35;;;;;;;;;;;24.30;28.40;;;;;;493575;240;1409;-60
2021/11/09 12:13:36;;;;;;;;;;;24.20;28.50;;;;;;494010;240;1049;-61
2021/11/09 12:15:38;;;;;;;;;;;24.20;28.40;;;;;;493699;240;1091;-60
2021/11/09 12:17:39;;;;;;;;;;;24.20;28.40;;;;;;493642;240;1299;-61
2021/11/09 12:19:43;;;;;;;;;;;24.20;28.40;;;;;;493622;240;1108;-60
2021/11/09 12:21:42;;;;;;;;;;;24.20;28.40;;;;;;493446;241;2291;-60
2021/11/09 12:23:45;;;;;;;;;;;24.20;28.50;;;;;;493656;240;2191;-60
2021/11/09 12:25:45;;;;;;;;;;;24.20;28.40;;;;;;493520;241;2272;-61
2021/11/09 12:27:46;;;;;;;;;;;24.20;28.50;;;;;;493532;240;1071;-60
2021/11/09 12:29:47;;;;;;;;;;;24.30;28.40;;;;;;493691;240;1109;-61
2021/11/09 12:31:49;;;;;;;;;;;24.30;28.40;;;;;;493769;240;1286;-60
2021/11/09 12:33:50;;;;;;;;;;;24.30;28.40;;;;;;493675;240;1091;-60
2021/11/09 12:35:51;;;;;;;;;;;24.30;28.30;;;;;;493574;240;1186;-61
2021/11/09 12:37:53;;;;;;;;;;;24.30;28.40;;;;;;493565;240;1100;-60
2021/11/09 12:39:54;;;;;;;;;;;24.30;28.30;;;;;;493470;240;1055;-60
2021/11/09 12:41:55;;;;;;;;;;;24.30;28.30;;;;;;493337;240;1198;-60
2021/11/09 12:43:57;;;;;;;;;;;24.30;28.50;;;;;;493395;240;2175;-60
2021/11/09 12:45:58;;;;;;;;;;;24.30;28.40;;;;;;493463;240;1249;-60
2021/11/09 12:47:59;;;;;;;;;;;24.30;28.40;;;;;;493362;240;1110;-61
2021/11/09 12:50:00;;;;;;;;;;;24.30;28.40;;;;;;493528;240;1271;-60
2021/11/09 12:52:02;;;;;;;;;;;24.20;28.50;;;;;;493227;240;1223;-61
2021/11/09 12:54:03;;;;;;;;;;;24.20;28.50;;;;;;493492;240;1061;-60
2021/11/09 12:56:05;;;;;;;;;;;24.20;28.50;;;;;;493502;240;1293;-61
2021/11/09 12:58:06;;;;;;;;;;;24.20;28.40;;;;;;493224;240;1156;-60
2021/11/09 13:00:10;;;;;;;;;;;24.20;28.40;;;;;;492853;240;1334;-60
2021/11/09 13:02:13;;;;;;;;;;;24.20;28.50;;;;;;493026;241;1372;-60
2021/11/09 13:04:26;;;;;;;;;;;24.20;28.50;;;;;;493102;241;2283;-60
2021/11/09 13:06:34;;;;;;;;;;;24.30;28.40;;;;;;493061;241;1990;-60
2021/11/09 13:08:40;;;;;;;;;;;24.30;28.40;;;;;;492870;241;2242;-61
2021/11/09 13:10:37;;;;;;;;;;;24.30;28.40;;;;;;492687;241;1811;-60
2021/11/09 13:12:32;;;;;;;;;;;24.30;28.30;;;;;;493428;241;1409;-60
2021/11/09 13:14:33;;;;;;;;;;;24.40;28.40;;;;;;493645;240;1075;-60
2021/11/09 13:16:34;;;;;;;;;;;24.40;28.30;;;;;;493552;240;1311;-61
2021/11/09 13:18:36;;;;;;;;;;;24.20;28.50;;;;;;493704;240;1166;-60
2021/11/09 13:20:38;;;;;;;;;;;24.30;28.40;;;;;;494068;240;1170;-60
2021/11/09 13:22:38;;;;;;;;;;;24.30;28.30;;;;;;493915;240;1945;-61
2021/11/09 13:24:40;;;;;;;;;;;24.30;28.40;;;;;;493786;240;2174;-60